createdAt,value
2022-11-14T00:00:21.838Z,11.5
2022-11-14T00:10:21.848Z,11.5
2022-11-14T00:20:21.816Z,11.5
2022-11-14T00:30:21.837Z,11.5
2022-11-14T00:40:21.813Z,12
2022-11-14T00:50:21.821Z,12
2022-11-14T01:00:21.815Z,12
2022-11-14T01:10:22.029Z,12
2022-11-14T01:20:21.833Z,12
2022-11-14T01:30:22.067Z,12
2022-11-14T01:40:21.818Z,12.5
2022-11-14T01:50:22.032Z,12.5
2022-11-14T02:00:21.822Z,12.5
2022-11-14T02:10:22.047Z,12.5
2022-11-14T02:20:21.806Z,13
2022-11-14T02:30:22.022Z,12.5
2022-11-14T02:40:22.001Z,12.5
2022-11-14T02:50:22.055Z,12.5
2022-11-14T03:00:22.041Z,12.5
2022-11-14T03:10:22.018Z,12.5
2022-11-14T03:20:22.011Z,13
2022-11-14T03:30:22.021Z,12.5
2022-11-14T03:40:22.014Z,13
2022-11-14T03:50:22.028Z,13
2022-11-14T04:00:22.016Z,13
2022-11-14T04:10:22.215Z,13
2022-11-14T04:20:21.998Z,13
2022-11-14T04:30:22.127Z,13
2022-11-14T04:40:21.992Z,13
2022-11-14T04:50:22.211Z,13
2022-11-14T05:00:21.982Z,13
2022-11-14T05:10:22.131Z,13
2022-11-14T05:20:21.978Z,13
2022-11-14T05:30:22.093Z,13
2022-11-14T05:40:22.181Z,13
2022-11-14T05:50:22.128Z,12.5
2022-11-14T06:00:22.214Z,13
2022-11-14T06:10:22.102Z,13
2022-11-14T06:20:22.177Z,13
2022-11-14T06:30:22.092Z,13
2022-11-14T06:40:22.155Z,13
2022-11-14T06:50:22.090Z,12.5
2022-11-14T07:00:22.170Z,13
2022-11-14T07:10:22.288Z,13
2022-11-14T07:20:22.192Z,13
2022-11-14T07:30:22.314Z,13
2022-11-14T07:40:22.155Z,13
2022-11-14T07:50:22.269Z,12.5
2022-11-14T08:00:22.162Z,12.5
2022-11-14T08:10:22.286Z,12.5
2022-11-14T08:20:22.344Z,12.5
2022-11-14T08:30:22.264Z,13
2022-11-14T08:40:22.332Z,13
2022-11-14T08:50:22.262Z,13
2022-11-14T09:00:22.357Z,13
2022-11-14T09:10:22.306Z,13
2022-11-14T09:20:24.771Z,13
2022-11-14T09:30:22.488Z,13
2022-11-14T09:40:22.419Z,14
2022-11-14T09:50:25.835Z,14.5
2022-11-14T10:00:22.317Z,14.5
2022-11-14T10:10:22.434Z,15
2022-11-14T10:20:22.312Z,15
2022-11-14T10:30:22.475Z,15.5
2022-11-14T10:40:22.336Z,15.5
2022-11-14T10:50:22.429Z,15.5
2022-11-14T11:00:22.743Z,15.5
2022-11-14T11:10:22.436Z,15.5
2022-11-14T11:20:22.523Z,16
2022-11-14T11:30:22.526Z,17
2022-11-14T11:40:22.531Z,17
2022-11-14T11:50:22.469Z,16.5
2022-11-14T12:00:22.560Z,16.5
2022-11-14T12:10:22.474Z,16.5
2022-11-14T12:20:22.472Z,16.5
2022-11-14T12:30:22.717Z,16.5
2022-11-14T12:40:22.639Z,16.5
2022-11-14T12:50:22.582Z,15.5
2022-11-14T13:00:22.903Z,15.5
2022-11-14T13:10:22.560Z,16
2022-11-14T13:20:22.658Z,16
2022-11-14T13:30:22.555Z,15.5
2022-11-14T13:40:22.622Z,15.5
2022-11-14T13:50:22.544Z,15.5
2022-11-14T14:10:22.687Z,15.5
2022-11-14T14:30:22.779Z,15
2022-11-14T15:20:22.657Z,15
2022-11-14T15:30:22.736Z,15
2022-11-14T15:40:22.645Z,15
2022-11-14T15:50:22.757Z,15
2022-11-14T16:00:22.665Z,15
2022-11-14T16:10:22.724Z,15
2022-11-14T16:20:22.870Z,15
2022-11-14T16:30:22.712Z,15
2022-11-14T16:40:22.841Z,15
2022-11-14T16:50:22.703Z,15
2022-11-14T17:00:22.874Z,16
2022-11-14T17:10:22.714Z,15.5
2022-11-14T17:20:22.835Z,15.5
2022-11-14T17:30:22.720Z,15.5
2022-11-14T17:40:22.844Z,15.5
2022-11-14T17:50:22.904Z,16
2022-11-14T18:00:22.991Z,16
2022-11-14T18:10:22.845Z,16
2022-11-14T18:20:22.961Z,16
2022-11-14T18:30:42.131Z,15.5
2022-11-14T18:40:22.953Z,15.5
2022-11-14T18:50:22.816Z,15.5
2022-11-14T19:00:23.023Z,15.5
2022-11-14T19:10:22.819Z,15.5
2022-11-14T19:20:22.941Z,15.5
2022-11-14T19:30:22.829Z,14.5
2022-11-14T19:40:22.944Z,14.5
2022-11-14T19:50:23.141Z,14.5
2022-11-14T20:00:22.953Z,14.5
2022-11-14T20:10:23.018Z,13.5
2022-11-14T20:20:22.935Z,13.5
2022-11-14T20:30:22.977Z,13.5
2022-11-14T20:40:23.126Z,13.5
2022-11-14T20:50:23.071Z,13.5
2022-11-14T21:00:23.269Z,13.5
2022-11-14T21:10:23.586Z,12.5
2022-11-14T21:20:23.219Z,12.5
2022-11-14T21:30:23.008Z,12.5
2022-11-14T21:40:23.121Z,12.5
2022-11-14T21:50:23.020Z,12.5
2022-11-14T22:00:23.122Z,12
2022-11-14T22:10:22.991Z,12
2022-11-14T22:20:23.113Z,11.5
2022-11-14T22:30:23.195Z,11.5
2022-11-14T22:40:23.108Z,11.5
2022-11-14T22:50:23.182Z,11.5
2022-11-14T23:00:23.102Z,11.5
2022-11-14T23:10:23.189Z,11.5
2022-11-14T23:20:23.116Z,11.5
2022-11-14T23:30:23.211Z,11
2022-11-14T23:40:23.125Z,10.5
2022-11-14T23:50:23.179Z,10.5
